sensor_id;sensor_type;location;lat;lon;timestamp;P1;durP1;ratioP1;P2;durP2;ratioP2
31378;SDS011;61664;48.112;11.662;2023-05-14T00:00:27;7.38;;;6.75;;
31378;SDS011;61664;48.112;11.662;2023-05-14T00:02:54;7.28;;;6.68;;
31378;SDS011;61664;48.112;11.662;2023-05-14T00:05:21;6.78;;;6.15;;
31378;SDS011;61664;48.112;11.662;2023-05-14T00:07:48;7.30;;;6.55;;
31378;SDS011;61664;48.112;11.662;2023-05-14T00:10:15;6.90;;;6.32;;
31378;SDS011;61664;48.112;11.662;2023-05-14T00:12:44;7.25;;;6.55;;
31378;SDS011;61664;48.112;11.662;2023-05-14T00:15:11;7.72;;;7.03;;
31378;SDS011;61664;48.112;11.662;2023-05-14T00:17:38;7.45;;;6.60;;
31378;SDS011;61664;48.112;11.662;2023-05-14T00:20:05;7.53;;;6.82;;
31378;SDS011;61664;48.112;11.662;2023-05-14T00:22:32;7.78;;;6.93;;
31378;SDS011;61664;48.112;11.662;2023-05-14T00:25:00;8.25;;;7.35;;
31378;SDS011;61664;48.112;11.662;2023-05-14T00:27:27;7.80;;;7.10;;
31378;SDS011;61664;48.112;11.662;2023-05-14T00:29:53;6.65;;;6.00;;
31378;SDS011;61664;48.112;11.662;2023-05-14T00:32:20;6.55;;;5.93;;
31378;SDS011;61664;48.112;11.662;2023-05-14T00:34:49;7.13;;;6.43;;
31378;SDS011;61664;48.112;11.662;2023-05-14T00:37:16;6.47;;;5.88;;
31378;SDS011;61664;48.112;11.662;2023-05-14T00:39:43;8.02;;;7.22;;
31378;SDS011;61664;48.112;11.662;2023-05-14T00:42:10;7.05;;;6.45;;
31378;SDS011;61664;48.112;11.662;2023-05-14T00:44:37;8.13;;;7.32;;
31378;SDS011;61664;48.112;11.662;2023-05-14T00:47:04;7.20;;;6.32;;
31378;SDS011;61664;48.112;11.662;2023-05-14T00:49:32;6.68;;;6.05;;
31378;SDS011;61664;48.112;11.662;2023-05-14T00:52:00;8.10;;;7.30;;
31378;SDS011;61664;48.112;11.662;2023-05-14T00:54:28;6.53;;;5.97;;
31378;SDS011;61664;48.112;11.662;2023-05-14T00:56:56;7.57;;;6.85;;
31378;SDS011;61664;48.112;11.662;2023-05-14T00:59:23;7.43;;;6.45;;
31378;SDS011;61664;48.112;11.662;2023-05-14T01:01:51;7.47;;;6.78;;
31378;SDS011;61664;48.112;11.662;2023-05-14T01:04:18;9.85;;;7.57;;
31378;SDS011;61664;48.112;11.662;2023-05-14T01:09:35;8.00;;;6.85;;
31378;SDS011;61664;48.112;11.662;2023-05-14T01:12:28;7.30;;;6.63;;
31378;SDS011;61664;48.112;11.662;2023-05-14T01:17:45;8.02;;;7.25;;
31378;SDS011;61664;48.112;11.662;2023-05-14T01:20:19;7.15;;;6.45;;
31378;SDS011;61664;48.112;11.662;2023-05-14T01:22:47;8.45;;;7.63;;
31378;SDS011;61664;48.112;11.662;2023-05-14T01:25:15;9.38;;;7.82;;
31378;SDS011;61664;48.112;11.662;2023-05-14T01:30:56;7.63;;;6.90;;
31378;SDS011;61664;48.112;11.662;2023-05-14T01:33:33;8.95;;;8.05;;
31378;SDS011;61664;48.112;11.662;2023-05-14T01:36:02;9.85;;;7.32;;
31378;SDS011;61664;48.112;11.662;2023-05-14T01:38:30;9.05;;;8.10;;
31378;SDS011;61664;48.112;11.662;2023-05-14T01:40:59;9.57;;;7.32;;
31378;SDS011;61664;48.112;11.662;2023-05-14T01:43:27;8.02;;;7.22;;
31378;SDS011;61664;48.112;11.662;2023-05-14T01:45:55;7.53;;;6.70;;
31378;SDS011;61664;48.112;11.662;2023-05-14T01:48:22;7.65;;;6.95;;
31378;SDS011;61664;48.112;11.662;2023-05-14T01:50:48;8.60;;;7.43;;
31378;SDS011;61664;48.112;11.662;2023-05-14T01:53:15;8.48;;;7.30;;
31378;SDS011;61664;48.112;11.662;2023-05-14T01:55:42;9.52;;;8.45;;
31378;SDS011;61664;48.112;11.662;2023-05-14T01:58:09;8.93;;;7.32;;
31378;SDS011;61664;48.112;11.662;2023-05-14T02:00:36;7.97;;;7.20;;
31378;SDS011;61664;48.112;11.662;2023-05-14T02:03:03;8.52;;;7.60;;
31378;SDS011;61664;48.112;11.662;2023-05-14T02:05:30;8.75;;;7.85;;
31378;SDS011;61664;48.112;11.662;2023-05-14T02:07:57;9.65;;;7.28;;
31378;SDS011;61664;48.112;11.662;2023-05-14T02:10:24;8.57;;;7.78;;
31378;SDS011;61664;48.112;11.662;2023-05-14T02:12:51;7.30;;;6.60;;
31378;SDS011;61664;48.112;11.662;2023-05-14T02:15:18;7.35;;;6.65;;
31378;SDS011;61664;48.112;11.662;2023-05-14T02:17:45;8.07;;;7.25;;
31378;SDS011;61664;48.112;11.662;2023-05-14T02:20:12;7.85;;;6.80;;
31378;SDS011;61664;48.112;11.662;2023-05-14T02:22:39;8.20;;;7.38;;
31378;SDS011;61664;48.112;11.662;2023-05-14T02:25:10;10.15;;;8.60;;
31378;SDS011;61664;48.112;11.662;2023-05-14T02:27:37;8.23;;;7.20;;
31378;SDS011;61664;48.112;11.662;2023-05-14T02:30:04;8.48;;;7.55;;
31378;SDS011;61664;48.112;11.662;2023-05-14T02:32:32;9.38;;;7.50;;
31378;SDS011;61664;48.112;11.662;2023-05-14T02:34:59;8.20;;;7.15;;
31378;SDS011;61664;48.112;11.662;2023-05-14T02:37:26;9.98;;;7.90;;
31378;SDS011;61664;48.112;11.662;2023-05-14T02:39:53;9.77;;;7.70;;
31378;SDS011;61664;48.112;11.662;2023-05-14T02:42:20;11.10;;;8.48;;
31378;SDS011;61664;48.112;11.662;2023-05-14T02:44:47;9.63;;;8.15;;
31378;SDS011;61664;48.112;11.662;2023-05-14T02:47:14;10.55;;;8.02;;
31378;SDS011;61664;48.112;11.662;2023-05-14T02:49:40;9.15;;;7.78;;
31378;SDS011;61664;48.112;11.662;2023-05-14T02:52:07;9.15;;;7.90;;
31378;SDS011;61664;48.112;11.662;2023-05-14T02:54:34;10.43;;;7.95;;
31378;SDS011;61664;48.112;11.662;2023-05-14T02:57:01;12.20;;;8.65;;
31378;SDS011;61664;48.112;11.662;2023-05-14T02:59:28;13.20;;;8.10;;
31378;SDS011;61664;48.112;11.662;2023-05-14T03:01:57;11.57;;;9.48;;
31378;SDS011;61664;48.112;11.662;2023-05-14T03:04:24;11.75;;;9.57;;
31378;SDS011;61664;48.112;11.662;2023-05-14T03:06:51;13.05;;;9.82;;
31378;SDS011;61664;48.112;11.662;2023-05-14T03:09:18;13.75;;;9.52;;
31378;SDS011;61664;48.112;11.662;2023-05-14T03:11:45;12.18;;;9.55;;
31378;SDS011;61664;48.112;11.662;2023-05-14T03:14:12;10.75;;;9.27;;
31378;SDS011;61664;48.112;11.662;2023-05-14T03:16:39;14.80;;;10.55;;
31378;SDS011;61664;48.112;11.662;2023-05-14T03:19:07;10.93;;;9.00;;
31378;SDS011;61664;48.112;11.662;2023-05-14T03:21:35;10.32;;;8.85;;
31378;SDS011;61664;48.112;11.662;2023-05-14T03:24:02;12.95;;;9.48;;
31378;SDS011;61664;48.112;11.662;2023-05-14T03:26:29;10.98;;;8.65;;
31378;SDS011;61664;48.112;11.662;2023-05-14T03:28:56;10.55;;;9.05;;
31378;SDS011;61664;48.112;11.662;2023-05-14T03:31:23;12.10;;;9.48;;
31378;SDS011;61664;48.112;11.662;2023-05-14T03:33:50;13.10;;;9.48;;
31378;SDS011;61664;48.112;11.662;2023-05-14T03:36:17;12.77;;;9.48;;
31378;SDS011;61664;48.112;11.662;2023-05-14T03:38:44;13.75;;;10.05;;
31378;SDS011;61664;48.112;11.662;2023-05-14T03:41:10;14.73;;;10.38;;
31378;SDS011;61664;48.112;11.662;2023-05-14T03:43:37;12.80;;;10.00;;
31378;SDS011;61664;48.112;11.662;2023-05-14T03:46:04;13.02;;;9.55;;
31378;SDS011;61664;48.112;11.662;2023-05-14T03:48:31;12.52;;;9.55;;
31378;SDS011;61664;48.112;11.662;2023-05-14T03:50:58;13.45;;;9.88;;
31378;SDS011;61664;48.112;11.662;2023-05-14T03:53:25;10.60;;;9.02;;
31378;SDS011;61664;48.112;11.662;2023-05-14T03:55:52;12.80;;;10.18;;
31378;SDS011;61664;48.112;11.662;2023-05-14T03:58:19;12.85;;;9.93;;
31378;SDS011;61664;48.112;11.662;2023-05-14T04:00:45;12.38;;;9.73;;
31378;SDS011;61664;48.112;11.662;2023-05-14T04:03:12;11.43;;;9.13;;
31378;SDS011;61664;48.112;11.662;2023-05-14T04:05:40;13.07;;;10.20;;
31378;SDS011;61664;48.112;11.662;2023-05-14T04:08:06;9.98;;;8.68;;
31378;SDS011;61664;48.112;11.662;2023-05-14T04:10:33;12.43;;;9.85;;
31378;SDS011;61664;48.112;11.662;2023-05-14T04:13:00;13.65;;;9.35;;
31378;SDS011;61664;48.112;11.662;2023-05-14T04:15:27;14.00;;;10.10;;
31378;SDS011;61664;48.112;11.662;2023-05-14T04:17:54;13.00;;;9.50;;
31378;SDS011;61664;48.112;11.662;2023-05-14T04:20:21;12.00;;;9.75;;
31378;SDS011;61664;48.112;11.662;2023-05-14T04:22:48;13.50;;;9.93;;
31378;SDS011;61664;48.112;11.662;2023-05-14T04:25:15;13.65;;;9.98;;
31378;SDS011;61664;48.112;11.662;2023-05-14T04:27:43;12.60;;;9.40;;
31378;SDS011;61664;48.112;11.662;2023-05-14T04:30:10;15.00;;;10.50;;
31378;SDS011;61664;48.112;11.662;2023-05-14T04:32:37;13.50;;;9.88;;
31378;SDS011;61664;48.112;11.662;2023-05-14T04:35:05;13.95;;;10.65;;
31378;SDS011;61664;48.112;11.662;2023-05-14T04:37:34;14.05;;;10.23;;
31378;SDS011;61664;48.112;11.662;2023-05-14T04:40:01;14.10;;;10.52;;
31378;SDS011;61664;48.112;11.662;2023-05-14T04:42:30;16.27;;;10.45;;
31378;SDS011;61664;48.112;11.662;2023-05-14T04:45:11;13.00;;;9.70;;
31378;SDS011;61664;48.112;11.662;2023-05-14T04:47:38;13.25;;;9.38;;
31378;SDS011;61664;48.112;11.662;2023-05-14T04:50:07;13.70;;;9.27;;
31378;SDS011;61664;48.112;11.662;2023-05-14T04:52:34;15.50;;;9.93;;
31378;SDS011;61664;48.112;11.662;2023-05-14T04:55:01;12.68;;;9.98;;
31378;SDS011;61664;48.112;11.662;2023-05-14T04:57:28;14.30;;;9.93;;
31378;SDS011;61664;48.112;11.662;2023-05-14T04:59:55;13.93;;;9.85;;
31378;SDS011;61664;48.112;11.662;2023-05-14T05:02:22;11.70;;;9.32;;
31378;SDS011;61664;48.112;11.662;2023-05-14T05:04:49;15.23;;;10.20;;
31378;SDS011;61664;48.112;11.662;2023-05-14T05:07:16;12.65;;;9.77;;
31378;SDS011;61664;48.112;11.662;2023-05-14T05:09:43;12.82;;;9.82;;
31378;SDS011;61664;48.112;11.662;2023-05-14T05:12:10;14.13;;;9.73;;
31378;SDS011;61664;48.112;11.662;2023-05-14T05:14:37;13.10;;;9.55;;
31378;SDS011;61664;48.112;11.662;2023-05-14T05:17:04;15.63;;;10.75;;
31378;SDS011;61664;48.112;11.662;2023-05-14T05:19:30;14.52;;;10.07;;
31378;SDS011;61664;48.112;11.662;2023-05-14T05:22:09;14.93;;;10.32;;
31378;SDS011;61664;48.112;11.662;2023-05-14T05:24:36;11.55;;;9.10;;
31378;SDS011;61664;48.112;11.662;2023-05-14T05:27:03;17.50;;;10.27;;
31378;SDS011;61664;48.112;11.662;2023-05-14T05:29:33;16.00;;;10.93;;
31378;SDS011;61664;48.112;11.662;2023-05-14T05:32:00;13.35;;;9.65;;
31378;SDS011;61664;48.112;11.662;2023-05-14T05:34:27;14.02;;;9.90;;
31378;SDS011;61664;48.112;11.662;2023-05-14T05:36:54;11.98;;;9.43;;
31378;SDS011;61664;48.112;11.662;2023-05-14T05:39:21;16.90;;;10.15;;
31378;SDS011;61664;48.112;11.662;2023-05-14T05:41:48;13.82;;;9.95;;
31378;SDS011;61664;48.112;11.662;2023-05-14T05:44:15;14.73;;;9.98;;
31378;SDS011;61664;48.112;11.662;2023-05-14T05:46:41;17.88;;;10.82;;
31378;SDS011;61664;48.112;11.662;2023-05-14T05:49:08;16.90;;;11.15;;
31378;SDS011;61664;48.112;11.662;2023-05-14T05:51:35;13.65;;;9.95;;
31378;SDS011;61664;48.112;11.662;2023-05-14T05:54:02;16.35;;;10.82;;
31378;SDS011;61664;48.112;11.662;2023-05-14T05:56:29;13.05;;;9.93;;
31378;SDS011;61664;48.112;11.662;2023-05-14T05:58:56;12.73;;;9.50;;
31378;SDS011;61664;48.112;11.662;2023-05-14T06:01:23;13.98;;;9.68;;
31378;SDS011;61664;48.112;11.662;2023-05-14T06:03:50;15.00;;;10.30;;
31378;SDS011;61664;48.112;11.662;2023-05-14T06:06:16;15.88;;;10.60;;
31378;SDS011;61664;48.112;11.662;2023-05-14T06:08:43;15.00;;;9.95;;
31378;SDS011;61664;48.112;11.662;2023-05-14T06:11:10;13.73;;;9.80;;
31378;SDS011;61664;48.112;11.662;2023-05-14T06:13:37;13.95;;;9.75;;
31378;SDS011;61664;48.112;11.662;2023-05-14T06:16:04;15.63;;;10.88;;
31378;SDS011;61664;48.112;11.662;2023-05-14T06:18:31;15.25;;;10.45;;
31378;SDS011;61664;48.112;11.662;2023-05-14T06:20:58;13.93;;;9.98;;
31378;SDS011;61664;48.112;11.662;2023-05-14T06:23:25;12.40;;;9.30;;
31378;SDS011;61664;48.112;11.662;2023-05-14T06:25:52;14.45;;;10.25;;
31378;SDS011;61664;48.112;11.662;2023-05-14T06:28:19;14.55;;;10.50;;
31378;SDS011;61664;48.112;11.662;2023-05-14T06:30:48;15.27;;;10.63;;
31378;SDS011;61664;48.112;11.662;2023-05-14T06:33:15;14.77;;;9.98;;
31378;SDS011;61664;48.112;11.662;2023-05-14T06:38:21;14.60;;;9.77;;
31378;SDS011;61664;48.112;11.662;2023-05-14T06:40:48;14.90;;;10.43;;
31378;SDS011;61664;48.112;11.662;2023-05-14T06:43:15;14.20;;;10.27;;
31378;SDS011;61664;48.112;11.662;2023-05-14T06:45:42;14.18;;;10.43;;
31378;SDS011;61664;48.112;11.662;2023-05-14T06:48:09;12.73;;;9.13;;
31378;SDS011;61664;48.112;11.662;2023-05-14T06:50:36;14.15;;;10.60;;
31378;SDS011;61664;48.112;11.662;2023-05-14T06:53:03;15.50;;;11.98;;
31378;SDS011;61664;48.112;11.662;2023-05-14T06:55:30;14.52;;;10.73;;
31378;SDS011;61664;48.112;11.662;2023-05-14T06:57:57;14.07;;;9.68;;
31378;SDS011;61664;48.112;11.662;2023-05-14T07:00:24;15.30;;;10.27;;
31378;SDS011;61664;48.112;11.662;2023-05-14T07:02:52;14.45;;;10.13;;
31378;SDS011;61664;48.112;11.662;2023-05-14T07:05:19;12.05;;;9.57;;
31378;SDS011;61664;48.112;11.662;2023-05-14T07:07:46;10.88;;;8.55;;
31378;SDS011;61664;48.112;11.662;2023-05-14T07:10:13;13.88;;;10.30;;
31378;SDS011;61664;48.112;11.662;2023-05-14T07:12:40;15.10;;;10.45;;
31378;SDS011;61664;48.112;11.662;2023-05-14T07:15:07;12.32;;;10.07;;
31378;SDS011;61664;48.112;11.662;2023-05-14T07:17:34;11.57;;;9.70;;
31378;SDS011;61664;48.112;11.662;2023-05-14T07:20:03;11.32;;;9.32;;
31378;SDS011;61664;48.112;11.662;2023-05-14T07:22:30;12.23;;;9.88;;
31378;SDS011;61664;48.112;11.662;2023-05-14T07:24:57;12.20;;;9.50;;
31378;SDS011;61664;48.112;11.662;2023-05-14T07:27:24;12.88;;;9.02;;
31378;SDS011;61664;48.112;11.662;2023-05-14T07:29:51;13.93;;;9.75;;
31378;SDS011;61664;48.112;11.662;2023-05-14T07:32:18;13.20;;;10.00;;
31378;SDS011;61664;48.112;11.662;2023-05-14T07:34:45;13.45;;;9.13;;
31378;SDS011;61664;48.112;11.662;2023-05-14T07:37:11;10.27;;;8.80;;
31378;SDS011;61664;48.112;11.662;2023-05-14T07:39:38;10.60;;;8.45;;
31378;SDS011;61664;48.112;11.662;2023-05-14T07:42:06;11.18;;;8.57;;
31378;SDS011;61664;48.112;11.662;2023-05-14T07:44:34;9.85;;;7.55;;
31378;SDS011;61664;48.112;11.662;2023-05-14T07:47:01;10.75;;;8.73;;
31378;SDS011;61664;48.112;11.662;2023-05-14T07:49:29;10.50;;;9.00;;
31378;SDS011;61664;48.112;11.662;2023-05-14T07:51:56;11.18;;;8.35;;
31378;SDS011;61664;48.112;11.662;2023-05-14T07:54:23;10.75;;;8.88;;
31378;SDS011;61664;48.112;11.662;2023-05-14T07:56:50;8.98;;;8.05;;
31378;SDS011;61664;48.112;11.662;2023-05-14T07:59:17;9.00;;;8.10;;
31378;SDS011;61664;48.112;11.662;2023-05-14T08:01:44;8.77;;;7.90;;
31378;SDS011;61664;48.112;11.662;2023-05-14T08:04:12;9.85;;;7.93;;
31378;SDS011;61664;48.112;11.662;2023-05-14T08:06:41;8.18;;;7.13;;
31378;SDS011;61664;48.112;11.662;2023-05-14T08:09:08;9.80;;;7.45;;
31378;SDS011;61664;48.112;11.662;2023-05-14T08:11:35;8.60;;;7.18;;
31378;SDS011;61664;48.112;11.662;2023-05-14T08:14:02;7.13;;;6.43;;
31378;SDS011;61664;48.112;11.662;2023-05-14T08:16:28;8.75;;;6.78;;
31378;SDS011;61664;48.112;11.662;2023-05-14T08:18:55;12.27;;;7.70;;
31378;SDS011;61664;48.112;11.662;2023-05-14T08:21:22;8.65;;;7.70;;
31378;SDS011;61664;48.112;11.662;2023-05-14T08:23:49;8.07;;;7.25;;
31378;SDS011;61664;48.112;11.662;2023-05-14T08:26:16;7.57;;;6.82;;
31378;SDS011;61664;48.112;11.662;2023-05-14T08:28:43;7.70;;;6.60;;
31378;SDS011;61664;48.112;11.662;2023-05-14T08:31:10;8.25;;;7.35;;
31378;SDS011;61664;48.112;11.662;2023-05-14T08:33:39;8.30;;;6.80;;
31378;SDS011;61664;48.112;11.662;2023-05-14T08:36:06;7.68;;;6.85;;
31378;SDS011;61664;48.112;11.662;2023-05-14T08:38:33;9.02;;;7.63;;
31378;SDS011;61664;48.112;11.662;2023-05-14T08:41:00;7.35;;;6.40;;
31378;SDS011;61664;48.112;11.662;2023-05-14T08:43:37;6.70;;;5.95;;
31378;SDS011;61664;48.112;11.662;2023-05-14T08:46:35;8.65;;;7.60;;
31378;SDS011;61664;48.112;11.662;2023-05-14T08:49:14;8.27;;;7.28;;
31378;SDS011;61664;48.112;11.662;2023-05-14T08:52:06;7.32;;;6.60;;
31378;SDS011;61664;48.112;11.662;2023-05-14T08:54:34;7.65;;;6.85;;
31378;SDS011;61664;48.112;11.662;2023-05-14T08:57:02;9.45;;;7.22;;
31378;SDS011;61664;48.112;11.662;2023-05-14T08:59:30;8.73;;;7.47;;
31378;SDS011;61664;48.112;11.662;2023-05-14T09:01:57;7.43;;;6.75;;
31378;SDS011;61664;48.112;11.662;2023-05-14T09:04:29;7.75;;;6.20;;
31378;SDS011;61664;48.112;11.662;2023-05-14T09:06:58;7.43;;;6.55;;
31378;SDS011;61664;48.112;11.662;2023-05-14T09:09:27;7.80;;;6.97;;
31378;SDS011;61664;48.112;11.662;2023-05-14T09:11:55;6.53;;;5.93;;
31378;SDS011;61664;48.112;11.662;2023-05-14T09:14:21;6.82;;;6.22;;
31378;SDS011;61664;48.112;11.662;2023-05-14T09:16:49;7.97;;;6.80;;
31378;SDS011;61664;48.112;11.662;2023-05-14T09:19:17;7.47;;;6.70;;
31378;SDS011;61664;48.112;11.662;2023-05-14T09:21:46;7.75;;;6.78;;
31378;SDS011;61664;48.112;11.662;2023-05-14T09:24:18;6.82;;;6.22;;
31378;SDS011;61664;48.112;11.662;2023-05-14T09:26:51;6.03;;;5.53;;
31378;SDS011;61664;48.112;11.662;2023-05-14T09:29:20;7.53;;;5.90;;
31378;SDS011;61664;48.112;11.662;2023-05-14T09:31:49;7.07;;;5.68;;
31378;SDS011;61664;48.112;11.662;2023-05-14T09:34:24;5.80;;;5.25;;
31378;SDS011;61664;48.112;11.662;2023-05-14T09:36:55;6.28;;;5.75;;
31378;SDS011;61664;48.112;11.662;2023-05-14T09:39:27;7.15;;;5.82;;
31378;SDS011;61664;48.112;11.662;2023-05-14T09:41:55;6.35;;;5.75;;
31378;SDS011;61664;48.112;11.662;2023-05-14T09:44:22;6.50;;;5.90;;
31378;SDS011;61664;48.112;11.662;2023-05-14T09:46:51;6.43;;;5.82;;
31378;SDS011;61664;48.112;11.662;2023-05-14T09:49:18;9.13;;;6.10;;
31378;SDS011;61664;48.112;11.662;2023-05-14T09:51:47;5.88;;;5.28;;
31378;SDS011;61664;48.112;11.662;2023-05-14T09:54:14;5.95;;;5.35;;
31378;SDS011;61664;48.112;11.662;2023-05-14T09:56:42;6.28;;;5.65;;
31378;SDS011;61664;48.112;11.662;2023-05-14T09:59:09;5.25;;;4.85;;
31378;SDS011;61664;48.112;11.662;2023-05-14T10:01:36;6.38;;;5.78;;
31378;SDS011;61664;48.112;11.662;2023-05-14T10:04:05;5.50;;;5.05;;
31378;SDS011;61664;48.112;11.662;2023-05-14T10:06:37;5.68;;;5.18;;
31378;SDS011;61664;48.112;11.662;2023-05-14T10:09:11;5.13;;;4.72;;
31378;SDS011;61664;48.112;11.662;2023-05-14T10:11:41;5.47;;;5.00;;
31378;SDS011;61664;48.112;11.662;2023-05-14T10:14:20;3.88;;;3.58;;
31378;SDS011;61664;48.112;11.662;2023-05-14T10:17:01;4.88;;;4.47;;
31378;SDS011;61664;48.112;11.662;2023-05-14T10:19:32;4.82;;;4.43;;
31378;SDS011;61664;48.112;11.662;2023-05-14T10:24:32;4.55;;;4.15;;
31378;SDS011;61664;48.112;11.662;2023-05-14T10:27:00;4.88;;;4.45;;
31378;SDS011;61664;48.112;11.662;2023-05-14T10:29:34;4.78;;;4.38;;
31378;SDS011;61664;48.112;11.662;2023-05-14T10:32:03;5.75;;;5.20;;
31378;SDS011;61664;48.112;11.662;2023-05-14T10:37:21;5.18;;;4.78;;
31378;SDS011;61664;48.112;11.662;2023-05-14T10:39:58;4.78;;;4.38;;
31378;SDS011;61664;48.112;11.662;2023-05-14T10:42:31;5.10;;;4.68;;
31378;SDS011;61664;48.112;11.662;2023-05-14T10:45:03;4.53;;;4.22;;
31378;SDS011;61664;48.112;11.662;2023-05-14T10:47:37;4.75;;;4.38;;
31378;SDS011;61664;48.112;11.662;2023-05-14T10:50:08;4.85;;;4.45;;
31378;SDS011;61664;48.112;11.662;2023-05-14T10:55:11;3.53;;;3.28;;
31378;SDS011;61664;48.112;11.662;2023-05-14T10:57:41;5.53;;;5.03;;
31378;SDS011;61664;48.112;11.662;2023-05-14T11:00:10;5.22;;;4.85;;
31378;SDS011;61664;48.112;11.662;2023-05-14T11:02:40;5.10;;;4.47;;
31378;SDS011;61664;48.112;11.662;2023-05-14T11:05:15;5.75;;;4.63;;
31378;SDS011;61664;48.112;11.662;2023-05-14T11:07:43;4.20;;;3.90;;
31378;SDS011;61664;48.112;11.662;2023-05-14T11:12:47;3.28;;;3.08;;
31378;SDS011;61664;48.112;11.662;2023-05-14T11:15:19;4.78;;;4.40;;
31378;SDS011;61664;48.112;11.662;2023-05-14T11:17:48;4.18;;;3.88;;
31378;SDS011;61664;48.112;11.662;2023-05-14T11:20:17;4.72;;;4.32;;
31378;SDS011;61664;48.112;11.662;2023-05-14T11:22:47;4.32;;;4.03;;
31378;SDS011;61664;48.112;11.662;2023-05-14T11:25:16;4.50;;;4.20;;
31378;SDS011;61664;48.112;11.662;2023-05-14T11:27:44;4.70;;;4.30;;
31378;SDS011;61664;48.112;11.662;2023-05-14T11:30:16;4.13;;;3.83;;
31378;SDS011;61664;48.112;11.662;2023-05-14T11:32:46;3.58;;;3.30;;
31378;SDS011;61664;48.112;11.662;2023-05-14T11:35:15;5.25;;;4.85;;
31378;SDS011;61664;48.112;11.662;2023-05-14T11:37:49;3.80;;;3.50;;
31378;SDS011;61664;48.112;11.662;2023-05-14T11:40:18;3.63;;;3.33;;
31378;SDS011;61664;48.112;11.662;2023-05-14T11:42:45;3.50;;;3.22;;
31378;SDS011;61664;48.112;11.662;2023-05-14T11:45:12;3.45;;;3.22;;
31378;SDS011;61664;48.112;11.662;2023-05-14T11:47:51;3.15;;;2.95;;
31378;SDS011;61664;48.112;11.662;2023-05-14T11:50:21;3.20;;;3.00;;
31378;SDS011;61664;48.112;11.662;2023-05-14T11:52:49;3.35;;;3.15;;
31378;SDS011;61664;48.112;11.662;2023-05-14T11:55:16;3.55;;;3.35;;
31378;SDS011;61664;48.112;11.662;2023-05-14T11:57:43;3.25;;;3.05;;
31378;SDS011;61664;48.112;11.662;2023-05-14T12:00:10;3.08;;;2.75;;
31378;SDS011;61664;48.112;11.662;2023-05-14T12:02:47;3.65;;;3.35;;
31378;SDS011;61664;48.112;11.662;2023-05-14T12:05:15;2.83;;;2.72;;
31378;SDS011;61664;48.112;11.662;2023-05-14T12:07:45;2.72;;;2.60;;
31378;SDS011;61664;48.112;11.662;2023-05-14T12:10:13;2.78;;;2.60;;
31378;SDS011;61664;48.112;11.662;2023-05-14T12:12:43;2.65;;;2.45;;
31378;SDS011;61664;48.112;11.662;2023-05-14T12:15:14;2.67;;;2.47;;
31378;SDS011;61664;48.112;11.662;2023-05-14T12:17:47;3.10;;;2.90;;
31378;SDS011;61664;48.112;11.662;2023-05-14T12:20:17;2.67;;;2.58;;
31378;SDS011;61664;48.112;11.662;2023-05-14T12:22:44;2.58;;;2.47;;
31378;SDS011;61664;48.112;11.662;2023-05-14T12:25:11;2.78;;;2.58;;
31378;SDS011;61664;48.112;11.662;2023-05-14T12:27:39;2.90;;;2.60;;
31378;SDS011;61664;48.112;11.662;2023-05-14T12:30:11;2.58;;;2.47;;
31378;SDS011;61664;48.112;11.662;2023-05-14T12:32:47;2.80;;;2.60;;
31378;SDS011;61664;48.112;11.662;2023-05-14T12:35:17;3.25;;;3.05;;
31378;SDS011;61664;48.112;11.662;2023-05-14T12:37:44;2.90;;;2.70;;
31378;SDS011;61664;48.112;11.662;2023-05-14T12:40:11;3.38;;;3.13;;
31378;SDS011;61664;48.112;11.662;2023-05-14T12:42:38;3.80;;;3.58;;
31378;SDS011;61664;48.112;11.662;2023-05-14T12:45:05;3.15;;;2.95;;
31378;SDS011;61664;48.112;11.662;2023-05-14T12:47:34;2.72;;;2.53;;
31378;SDS011;61664;48.112;11.662;2023-05-14T12:50:02;2.90;;;2.70;;
31378;SDS011;61664;48.112;11.662;2023-05-14T12:52:29;3.38;;;3.17;;
31378;SDS011;61664;48.112;11.662;2023-05-14T12:54:59;2.75;;;2.55;;
31378;SDS011;61664;48.112;11.662;2023-05-14T12:57:26;2.60;;;2.47;;
31378;SDS011;61664;48.112;11.662;2023-05-14T12:59:55;2.92;;;2.72;;
31378;SDS011;61664;48.112;11.662;2023-05-14T13:02:23;2.42;;;2.33;;
31378;SDS011;61664;48.112;11.662;2023-05-14T13:04:49;3.08;;;2.83;;
31378;SDS011;61664;48.112;11.662;2023-05-14T13:07:16;3.08;;;2.88;;
31378;SDS011;61664;48.112;11.662;2023-05-14T13:09:43;2.40;;;2.30;;
31378;SDS011;61664;48.112;11.662;2023-05-14T13:12:10;3.03;;;2.83;;
31378;SDS011;61664;48.112;11.662;2023-05-14T13:14:37;2.40;;;2.30;;
31378;SDS011;61664;48.112;11.662;2023-05-14T13:17:04;2.78;;;2.67;;
31378;SDS011;61664;48.112;11.662;2023-05-14T13:19:33;3.05;;;2.85;;
31378;SDS011;61664;48.112;11.662;2023-05-14T13:22:00;2.45;;;2.35;;
31378;SDS011;61664;48.112;11.662;2023-05-14T13:24:27;2.47;;;2.38;;
31378;SDS011;61664;48.112;11.662;2023-05-14T13:26:54;2.08;;;1.98;;
31378;SDS011;61664;48.112;11.662;2023-05-14T13:29:22;2.70;;;2.60;;
31378;SDS011;61664;48.112;11.662;2023-05-14T13:31:49;2.60;;;2.50;;
31378;SDS011;61664;48.112;11.662;2023-05-14T13:34:16;2.90;;;2.80;;
31378;SDS011;61664;48.112;11.662;2023-05-14T13:36:43;2.55;;;2.45;;
31378;SDS011;61664;48.112;11.662;2023-05-14T13:39:10;2.42;;;2.30;;
31378;SDS011;61664;48.112;11.662;2023-05-14T13:41:39;2.58;;;2.47;;
31378;SDS011;61664;48.112;11.662;2023-05-14T13:44:06;2.47;;;2.28;;
31378;SDS011;61664;48.112;11.662;2023-05-14T13:46:33;2.15;;;2.05;;
31378;SDS011;61664;48.112;11.662;2023-05-14T13:49:00;2.25;;;2.15;;
31378;SDS011;61664;48.112;11.662;2023-05-14T13:51:27;1.98;;;1.88;;
31378;SDS011;61664;48.112;11.662;2023-05-14T13:53:54;2.95;;;2.75;;
31378;SDS011;61664;48.112;11.662;2023-05-14T13:56:21;2.50;;;2.40;;
31378;SDS011;61664;48.112;11.662;2023-05-14T13:58:48;3.03;;;2.38;;
31378;SDS011;61664;48.112;11.662;2023-05-14T14:01:15;1.90;;;1.80;;
31378;SDS011;61664;48.112;11.662;2023-05-14T14:03:42;1.42;;;1.40;;
31378;SDS011;61664;48.112;11.662;2023-05-14T14:06:09;1.85;;;1.75;;
31378;SDS011;61664;48.112;11.662;2023-05-14T14:08:36;4.15;;;1.77;;
31378;SDS011;61664;48.112;11.662;2023-05-14T14:11:03;1.70;;;1.60;;
31378;SDS011;61664;48.112;11.662;2023-05-14T14:13:30;1.70;;;1.60;;
31378;SDS011;61664;48.112;11.662;2023-05-14T14:15:57;1.60;;;1.52;;
31378;SDS011;61664;48.112;11.662;2023-05-14T14:18:24;1.63;;;1.52;;
31378;SDS011;61664;48.112;11.662;2023-05-14T14:20:52;1.40;;;1.40;;
31378;SDS011;61664;48.112;11.662;2023-05-14T14:23:19;1.40;;;1.30;;
31378;SDS011;61664;48.112;11.662;2023-05-14T14:25:46;1.75;;;1.65;;
31378;SDS011;61664;48.112;11.662;2023-05-14T14:28:13;1.00;;;1.00;;
31378;SDS011;61664;48.112;11.662;2023-05-14T14:30:40;1.08;;;1.08;;
31378;SDS011;61664;48.112;11.662;2023-05-14T14:33:08;1.00;;;1.00;;
31378;SDS011;61664;48.112;11.662;2023-05-14T14:35:36;1.05;;;1.05;;
31378;SDS011;61664;48.112;11.662;2023-05-14T14:38:03;1.20;;;1.20;;
31378;SDS011;61664;48.112;11.662;2023-05-14T14:40:31;0.93;;;0.93;;
31378;SDS011;61664;48.112;11.662;2023-05-14T14:42:59;0.90;;;0.90;;
31378;SDS011;61664;48.112;11.662;2023-05-14T14:45:27;1.02;;;1.02;;
31378;SDS011;61664;48.112;11.662;2023-05-14T14:48:20;1.13;;;1.13;;
31378;SDS011;61664;48.112;11.662;2023-05-14T14:50:59;0.88;;;0.88;;
31378;SDS011;61664;48.112;11.662;2023-05-14T14:53:26;2.20;;;1.27;;
31378;SDS011;61664;48.112;11.662;2023-05-14T14:55:53;1.08;;;1.08;;